createdAt,value
2022-12-25T00:02:02.373Z,8.85
2022-12-25T00:04:29.289Z,8.55
2022-12-25T00:06:56.042Z,11.85
2022-12-25T00:09:22.677Z,11.00
2022-12-25T00:11:49.415Z,8.80
2022-12-25T00:14:16.304Z,9.98
2022-12-25T00:16:42.995Z,9.23
2022-12-25T00:19:09.679Z,8.50
2022-12-25T00:21:36.309Z,7.95
2022-12-25T00:24:03.621Z,7.30
2022-12-25T00:26:30.543Z,8.25
2022-12-25T00:28:58.637Z,8.40
2022-12-25T00:31:26.788Z,8.43
2022-12-25T00:33:54.196Z,9.48
2022-12-25T00:36:22.947Z,8.38
2022-12-25T00:38:49.739Z,8.48
2022-12-25T00:41:39.959Z,8.80
2022-12-25T00:44:07.969Z,9.02
2022-12-25T00:46:34.917Z,8.48
2022-12-25T00:49:01.963Z,8.55
2022-12-25T00:51:28.953Z,7.50
2022-12-25T00:53:56.290Z,8.30
2022-12-25T00:56:23.203Z,8.27
2022-12-25T00:58:49.972Z,9.68
2022-12-25T01:01:17.370Z,8.23
2022-12-25T01:03:44.077Z,8.25
2022-12-25T01:06:12.876Z,7.95
2022-12-25T01:08:59.721Z,8.13
2022-12-25T01:11:26.739Z,8.55
2022-12-25T01:13:53.458Z,8.77
2022-12-25T01:16:20.227Z,9.05
2022-12-25T01:18:46.953Z,9.23
2022-12-25T01:21:16.330Z,9.35
2022-12-25T01:23:44.180Z,8.27
2022-12-25T01:26:12.583Z,8.27
2022-12-25T01:28:39.846Z,8.10
2022-12-25T01:31:13.177Z,7.82
2022-12-25T01:33:41.288Z,7.18
2022-12-25T01:36:17.937Z,8.57
2022-12-25T01:38:45.725Z,8.02
2022-12-25T01:41:14.493Z,8.55
2022-12-25T01:44:00.240Z,7.90
2022-12-25T01:46:27.062Z,8.70
2022-12-25T01:48:55.784Z,8.73
2022-12-25T01:51:45.865Z,8.27
2022-12-25T01:54:17.507Z,8.52
2022-12-25T01:59:16.130Z,6.90
2022-12-25T02:01:43.145Z,7.30
2022-12-25T02:04:19.400Z,7.13
2022-12-25T02:06:47.792Z,7.20
2022-12-25T02:09:15.144Z,7.97
2022-12-25T02:11:57.206Z,7.40
2022-12-25T02:14:26.767Z,6.65
2022-12-25T02:17:06.529Z,7.20
2022-12-25T02:19:57.162Z,6.57
2022-12-25T02:22:33.331Z,6.63
2022-12-25T02:25:32.308Z,6.40
2022-12-25T02:28:11.227Z,8.15
2022-12-25T02:30:43.542Z,7.13
2022-12-25T02:33:35.143Z,8.02
2022-12-25T02:36:09.467Z,6.97
2022-12-25T02:38:59.781Z,6.28
2022-12-25T02:41:30.384Z,7.50
2022-12-25T02:44:17.309Z,9.27
2022-12-25T02:47:03.604Z,6.85
2022-12-25T02:49:49.640Z,5.53
2022-12-25T02:52:39.160Z,7.10
2022-12-25T02:55:31.128Z,6.00
2022-12-25T03:01:07.782Z,5.63
2022-12-25T03:03:59.138Z,5.90
2022-12-25T03:06:43.306Z,6.97
2022-12-25T03:09:37.569Z,6.15
2022-12-25T03:12:24.835Z,6.53
2022-12-25T03:15:10.194Z,6.63
2022-12-25T03:17:37.011Z,6.45
2022-12-25T03:20:23.248Z,5.53
2022-12-25T03:23:28.959Z,5.78
2022-12-25T03:26:14.255Z,7.13
2022-12-25T03:28:40.891Z,6.45
2022-12-25T03:31:26.542Z,6.78
2022-12-25T03:34:12.048Z,6.13
2022-12-25T03:36:52.921Z,6.10
2022-12-25T03:40:01.099Z,6.50
2022-12-25T03:42:35.862Z,5.30
2022-12-25T03:45:30.363Z,5.72
2022-12-25T03:48:29.468Z,5.40
2022-12-25T03:51:22.259Z,5.75
2022-12-25T03:54:13.229Z,6.25
2022-12-25T03:56:59.527Z,5.97
2022-12-25T03:59:44.684Z,5.53
2022-12-25T04:02:30.070Z,6.05
2022-12-25T04:05:15.343Z,6.13
2022-12-25T04:08:01.050Z,5.28
2022-12-25T04:10:46.559Z,5.15
2022-12-25T04:13:32.111Z,6.13
2022-12-25T04:16:17.633Z,5.13
2022-12-25T04:19:02.964Z,5.50
2022-12-25T04:21:48.411Z,5.65
2022-12-25T04:24:33.759Z,6.90
2022-12-25T04:27:19.277Z,6.70
2022-12-25T04:30:04.708Z,5.35
2022-12-25T04:32:50.332Z,6.00
2022-12-25T04:35:35.662Z,5.82
2022-12-25T04:38:02.368Z,7.13
2022-12-25T04:40:29.055Z,5.07
2022-12-25T04:42:55.788Z,5.15
2022-12-25T04:45:22.513Z,5.38
2022-12-25T04:47:49.203Z,4.87
2022-12-25T04:50:15.869Z,4.35
2022-12-25T04:52:42.817Z,4.90
2022-12-25T04:55:11.049Z,4.60
2022-12-25T04:57:38.095Z,5.07
2022-12-25T05:00:07.684Z,4.93
2022-12-25T05:02:34.913Z,4.93
2022-12-25T05:05:02.093Z,5.25
2022-12-25T05:07:28.821Z,4.93
2022-12-25T05:09:55.538Z,5.88
2022-12-25T05:12:22.218Z,5.15
2022-12-25T05:14:48.860Z,4.63
2022-12-25T05:17:15.590Z,4.82
2022-12-25T05:19:42.773Z,4.43
2022-12-25T05:22:09.787Z,4.25
2022-12-25T05:24:36.472Z,4.13
2022-12-25T05:27:03.209Z,4.80
2022-12-25T05:29:29.932Z,4.20
2022-12-25T05:31:56.553Z,3.97
2022-12-25T05:34:23.423Z,4.32
2022-12-25T05:36:50.189Z,3.60
2022-12-25T05:39:16.897Z,3.63
2022-12-25T05:41:43.539Z,4.43
2022-12-25T05:44:10.278Z,3.83
2022-12-25T05:46:36.993Z,4.15
2022-12-25T05:49:05.532Z,4.78
2022-12-25T05:51:32.596Z,5.35
2022-12-25T05:53:59.487Z,5.63
2022-12-25T05:56:26.137Z,4.05
2022-12-25T05:58:52.828Z,4.65
2022-12-25T06:01:22.058Z,4.55
2022-12-25T06:03:48.993Z,4.93
2022-12-25T06:06:15.839Z,4.43
2022-12-25T06:08:43.189Z,4.05
2022-12-25T06:11:11.176Z,4.25
2022-12-25T06:13:37.923Z,4.30
2022-12-25T06:16:09.741Z,3.65
2022-12-25T06:18:41.862Z,4.28
2022-12-25T06:21:10.871Z,4.15
2022-12-25T06:23:38.412Z,4.57
2022-12-25T06:26:11.312Z,3.80
2022-12-25T06:28:38.099Z,3.58
2022-12-25T06:31:31.389Z,3.10
2022-12-25T06:33:58.188Z,3.20
2022-12-25T06:36:27.219Z,2.80
2022-12-25T06:38:54.351Z,3.00
2022-12-25T06:41:23.455Z,3.50
2022-12-25T06:43:52.136Z,3.05
2022-12-25T06:46:20.002Z,3.15
2022-12-25T06:48:50.146Z,3.17
2022-12-25T06:51:25.303Z,2.47
2022-12-25T06:53:52.845Z,2.90
2022-12-25T06:56:25.535Z,2.40
2022-12-25T06:58:57.118Z,2.90
2022-12-25T07:01:30.006Z,2.42
2022-12-25T07:03:59.903Z,2.15
2022-12-25T07:06:26.893Z,2.55
2022-12-25T07:08:53.695Z,2.30
2022-12-25T07:11:21.157Z,2.67
2022-12-25T07:13:48.173Z,3.63
2022-12-25T07:16:15.559Z,2.85
2022-12-25T07:18:42.773Z,2.75
2022-12-25T07:21:20.474Z,2.42
2022-12-25T07:23:49.454Z,2.45
2022-12-25T07:26:20.015Z,2.22
2022-12-25T07:28:46.684Z,2.50
2022-12-25T07:31:16.361Z,2.75
2022-12-25T07:33:43.873Z,3.22
2022-12-25T07:36:12.834Z,2.67
2022-12-25T07:38:41.367Z,2.30
2022-12-25T07:41:12.712Z,2.85
2022-12-25T07:46:06.596Z,2.40
2022-12-25T07:48:33.556Z,2.85
2022-12-25T07:51:07.989Z,3.38
2022-12-25T07:53:35.388Z,2.50
2022-12-25T07:56:14.594Z,2.78
2022-12-25T07:58:42.112Z,3.10
2022-12-25T08:01:22.521Z,2.75
2022-12-25T08:03:54.514Z,3.33
2022-12-25T08:06:23.089Z,2.53
2022-12-25T08:08:49.909Z,2.78
2022-12-25T08:11:16.664Z,3.00
2022-12-25T08:13:43.375Z,3.22
2022-12-25T08:16:11.012Z,2.95
2022-12-25T08:18:39.073Z,3.13
2022-12-25T08:21:11.788Z,2.80
2022-12-25T08:23:41.178Z,2.50
2022-12-25T08:26:09.232Z,2.25
2022-12-25T08:28:36.500Z,2.97
2022-12-25T08:31:09.051Z,2.60
2022-12-25T08:33:36.359Z,3.20
2022-12-25T08:36:08.464Z,2.22
2022-12-25T08:38:35.677Z,2.80
2022-12-25T08:41:02.958Z,3.15
2022-12-25T08:43:29.841Z,4.13
2022-12-25T08:45:56.622Z,4.15
2022-12-25T08:48:23.640Z,3.17
2022-12-25T08:50:51.657Z,3.65
2022-12-25T08:53:18.989Z,2.80
2022-12-25T08:55:45.816Z,2.45
2022-12-25T08:58:14.514Z,2.67
2022-12-25T09:00:41.379Z,3.20
2022-12-25T09:03:08.299Z,2.80
2022-12-25T09:05:38.242Z,2.55
2022-12-25T09:08:05.169Z,2.53
2022-12-25T09:10:34.888Z,2.70
2022-12-25T09:13:01.587Z,4.22
2022-12-25T09:15:28.412Z,4.28
2022-12-25T09:17:55.209Z,6.13
2022-12-25T09:20:21.967Z,6.05
2022-12-25T09:22:48.799Z,4.57
2022-12-25T09:25:15.833Z,3.75
2022-12-25T09:27:43.643Z,4.10
2022-12-25T09:30:11.209Z,4.85
2022-12-25T09:32:40.136Z,5.72
2022-12-25T09:35:08.465Z,4.22
2022-12-25T09:37:35.212Z,4.68
2022-12-25T09:40:02.343Z,4.57
2022-12-25T09:42:31.641Z,4.45
2022-12-25T09:45:04.251Z,4.82
2022-12-25T09:47:34.925Z,5.20
2022-12-25T09:50:04.628Z,5.15
2022-12-25T09:52:34.364Z,6.43
2022-12-25T09:55:14.810Z,5.72
2022-12-25T09:57:45.679Z,5.57
2022-12-25T10:00:18.191Z,6.22
2022-12-25T10:03:06.124Z,6.15
2022-12-25T10:06:21.245Z,5.50
2022-12-25T10:09:31.992Z,5.75
2022-12-25T10:12:23.921Z,6.25
2022-12-25T10:15:15.435Z,6.13
2022-12-25T10:18:11.329Z,6.35
2022-12-25T10:20:50.418Z,6.47
2022-12-25T10:23:28.187Z,6.50
2022-12-25T10:25:55.450Z,6.25
2022-12-25T10:28:29.878Z,6.93
2022-12-25T10:31:00.372Z,6.75
2022-12-25T10:33:27.967Z,6.85
2022-12-25T10:35:54.807Z,6.03
2022-12-25T10:38:21.516Z,6.43
2022-12-25T10:41:29.022Z,6.15
2022-12-25T10:43:57.325Z,6.90
2022-12-25T10:46:27.181Z,6.50
2022-12-25T10:49:00.120Z,6.70
2022-12-25T10:51:38.372Z,6.47
2022-12-25T10:54:22.225Z,6.97
2022-12-25T10:57:16.110Z,7.15
2022-12-25T10:59:52.112Z,5.82
2022-12-25T11:02:18.777Z,6.22
2022-12-25T11:04:45.953Z,6.43
2022-12-25T11:07:18.748Z,6.28
2022-12-25T11:10:17.650Z,5.90
2022-12-25T11:12:45.704Z,5.30
2022-12-25T11:15:34.106Z,5.32
2022-12-25T11:18:01.005Z,5.82
2022-12-25T11:20:27.660Z,5.68
2022-12-25T11:22:54.455Z,5.53
2022-12-25T11:25:28.215Z,7.65
2022-12-25T11:28:03.948Z,7.88
2022-12-25T11:30:33.213Z,6.63
2022-12-25T11:33:04.836Z,6.50
2022-12-25T11:37:59.140Z,6.55
2022-12-25T11:40:46.766Z,7.35
2022-12-25T11:43:18.223Z,6.65
2022-12-25T11:45:51.621Z,7.88
2022-12-25T11:48:24.988Z,7.63
2022-12-25T11:50:55.455Z,7.68
2022-12-25T11:53:25.131Z,7.15
2022-12-25T11:55:57.031Z,8.18
2022-12-25T11:58:35.788Z,9.20
2022-12-25T12:01:27.573Z,9.48
2022-12-25T12:03:55.059Z,10.00
2022-12-25T12:06:43.893Z,9.45
2022-12-25T12:09:34.440Z,9.85
2022-12-25T12:12:16.974Z,10.40
2022-12-25T12:14:59.022Z,10.90
2022-12-25T12:17:26.114Z,11.02
2022-12-25T12:19:52.781Z,10.07
2022-12-25T12:22:23.680Z,9.70
2022-12-25T12:24:58.918Z,9.87
2022-12-25T12:27:33.019Z,12.50
2022-12-25T12:30:01.020Z,11.10
2022-12-25T12:32:27.660Z,11.30
2022-12-25T12:34:55.157Z,11.43
2022-12-25T12:37:32.192Z,12.45
2022-12-25T12:39:59.639Z,14.23
2022-12-25T12:42:30.666Z,13.35
2022-12-25T12:45:09.752Z,13.68
2022-12-25T12:47:49.130Z,12.43
2022-12-25T12:50:34.852Z,13.00
2022-12-25T12:53:21.949Z,12.27
2022-12-25T12:55:51.648Z,12.90
2022-12-25T12:58:30.805Z,12.57
2022-12-25T13:01:11.852Z,12.00
2022-12-25T13:03:41.664Z,12.40
2022-12-25T13:06:24.579Z,11.30
2022-12-25T13:09:10.059Z,12.75
2022-12-25T13:11:41.673Z,12.13
2022-12-25T13:14:17.963Z,12.20
2022-12-25T13:16:46.714Z,13.77
2022-12-25T13:19:25.696Z,14.27
2022-12-25T13:22:04.167Z,13.23
2022-12-25T13:24:34.142Z,14.93
2022-12-25T13:27:02.236Z,15.18
2022-12-25T13:29:34.307Z,15.10
2022-12-25T13:32:03.314Z,14.07
2022-12-25T13:34:34.113Z,14.82
2022-12-25T13:37:10.172Z,14.40
2022-12-25T13:39:48.015Z,14.63
2022-12-25T13:42:18.421Z,14.13
2022-12-25T13:44:54.946Z,15.55
2022-12-25T13:47:30.953Z,16.67
2022-12-25T13:49:59.512Z,16.58
2022-12-25T13:52:35.777Z,17.05
2022-12-25T13:55:03.967Z,17.17
2022-12-25T13:57:35.841Z,19.00
2022-12-25T14:00:04.747Z,18.48
2022-12-25T14:02:36.172Z,15.98
2022-12-25T14:05:04.587Z,16.08
2022-12-25T14:07:31.672Z,15.52
2022-12-25T14:10:03.275Z,15.02
2022-12-25T14:12:31.838Z,14.88
2022-12-25T14:15:00.185Z,13.90
2022-12-25T14:17:27.434Z,15.68
2022-12-25T14:20:05.676Z,15.02
2022-12-25T14:22:35.919Z,14.85
2022-12-25T14:25:02.677Z,17.23
2022-12-25T14:27:32.845Z,17.38
2022-12-25T14:30:01.234Z,17.02
2022-12-25T14:32:31.285Z,18.02
2022-12-25T14:35:03.228Z,16.63
2022-12-25T14:37:32.356Z,18.25
2022-12-25T14:40:21.710Z,17.95
2022-12-25T14:43:22.057Z,20.10
2022-12-25T14:46:02.659Z,18.58
2022-12-25T14:48:31.616Z,18.63
2022-12-25T14:51:00.572Z,18.95
2022-12-25T14:53:56.702Z,19.55
2022-12-25T14:56:25.619Z,19.38
2022-12-25T14:58:58.101Z,20.10
2022-12-25T15:01:41.337Z,19.80
2022-12-25T15:04:11.238Z,21.02
2022-12-25T15:07:09.350Z,22.00
2022-12-25T15:09:37.686Z,20.98
2022-12-25T15:12:04.619Z,21.08
2022-12-25T15:14:31.460Z,21.55
2022-12-25T15:17:00.930Z,22.25
2022-12-25T15:19:37.016Z,23.75
2022-12-25T15:22:04.820Z,23.83
2022-12-25T15:24:32.243Z,23.00
2022-12-25T15:27:00.459Z,22.50
2022-12-25T15:30:00.097Z,21.95
2022-12-25T15:32:18.740Z,20.95
2022-12-25T15:34:49.500Z,20.13
2022-12-25T15:37:19.627Z,20.88
2022-12-25T15:39:46.760Z,21.35
2022-12-25T15:42:15.840Z,19.08
2022-12-25T15:44:43.636Z,19.55
2022-12-25T15:47:11.594Z,18.40
2022-12-25T15:49:38.711Z,18.23
2022-12-25T15:52:07.594Z,19.73
2022-12-25T15:54:34.408Z,19.25
2022-12-25T15:57:04.442Z,18.90
2022-12-25T15:59:31.941Z,18.55
2022-12-25T16:02:01.060Z,17.77
2022-12-25T16:04:29.064Z,18.25
2022-12-25T16:06:56.485Z,17.17
2022-12-25T16:09:23.207Z,19.58
2022-12-25T16:11:50.511Z,17.88
2022-12-25T16:14:18.727Z,17.13
2022-12-25T16:16:45.448Z,17.02
2022-12-25T16:19:12.121Z,17.05
2022-12-25T16:21:44.576Z,16.73
2022-12-25T16:24:11.840Z,18.23
2022-12-25T16:26:38.804Z,18.85
2022-12-25T16:29:07.569Z,19.10
2022-12-25T16:31:35.630Z,18.98
2022-12-25T16:34:02.744Z,18.55
2022-12-25T16:36:29.482Z,19.13
2022-12-25T16:38:56.205Z,20.33
2022-12-25T16:41:23.300Z,20.05
2022-12-25T16:43:50.210Z,22.02
2022-12-25T16:46:20.514Z,22.10
2022-12-25T16:48:47.991Z,19.48
2022-12-25T16:51:18.069Z,17.65
2022-12-25T16:53:44.834Z,19.58
2022-12-25T16:56:17.043Z,18.30
2022-12-25T16:58:46.487Z,18.23
2022-12-25T17:01:18.366Z,18.13
2022-12-25T17:03:46.342Z,16.08
2022-12-25T17:06:19.737Z,20.80
2022-12-25T17:08:47.262Z,21.27
2022-12-25T17:11:14.675Z,20.92
2022-12-25T17:13:41.383Z,21.50
2022-12-25T17:16:16.852Z,24.45
2022-12-25T17:18:43.835Z,25.42
2022-12-25T17:21:10.638Z,22.38
2022-12-25T17:23:38.261Z,20.05
2022-12-25T17:26:06.411Z,18.90
2022-12-25T17:28:34.540Z,21.23
2022-12-25T17:31:08.606Z,20.23
2022-12-25T17:33:36.819Z,20.30
2022-12-25T17:36:07.020Z,20.60
2022-12-25T17:38:34.717Z,20.65
2022-12-25T17:41:05.409Z,23.30
2022-12-25T17:43:32.942Z,21.15
2022-12-25T17:46:13.026Z,20.30
2022-12-25T17:48:40.233Z,20.55
2022-12-25T17:51:10.555Z,21.50
2022-12-25T17:53:39.040Z,20.73
2022-12-25T17:56:06.554Z,20.45
2022-12-25T17:58:33.332Z,23.52
2022-12-25T18:01:06.498Z,23.67
2022-12-25T18:03:33.398Z,23.38
2022-12-25T18:06:01.455Z,21.45
2022-12-25T18:08:32.524Z,22.35
2022-12-25T18:11:06.091Z,21.77
2022-12-25T18:13:32.840Z,20.65
2022-12-25T18:16:04.389Z,18.58
2022-12-25T18:18:31.566Z,17.88
2022-12-25T18:20:58.666Z,17.10
2022-12-25T18:23:26.394Z,15.50
2022-12-25T18:25:53.143Z,17.02
2022-12-25T18:28:20.291Z,14.30
2022-12-25T18:30:48.172Z,15.93
2022-12-25T18:33:14.791Z,15.52
2022-12-25T18:35:43.429Z,14.55
2022-12-25T18:38:11.511Z,15.45
2022-12-25T18:40:47.316Z,15.55
2022-12-25T18:43:15.093Z,15.10
2022-12-25T18:45:42.071Z,14.63
2022-12-25T18:48:09.782Z,15.00
2022-12-25T18:50:39.657Z,15.90
2022-12-25T18:53:07.116Z,15.60
2022-12-25T18:55:35.351Z,13.90
2022-12-25T18:58:02.457Z,12.63
2022-12-25T19:00:29.116Z,12.13
2022-12-25T19:02:58.251Z,12.90
2022-12-25T19:05:25.829Z,11.98
2022-12-25T19:07:52.592Z,13.23
2022-12-25T19:10:19.427Z,11.73
2022-12-25T19:12:46.190Z,11.77
2022-12-25T19:15:13.481Z,11.93
2022-12-25T19:17:40.117Z,10.20
2022-12-25T19:20:07.715Z,9.93
2022-12-25T19:22:34.371Z,9.57
2022-12-25T19:25:00.999Z,9.40
2022-12-25T19:27:27.707Z,10.13
2022-12-25T19:29:54.331Z,9.65
2022-12-25T19:32:21.123Z,8.40
2022-12-25T19:34:47.818Z,8.77
2022-12-25T19:37:15.049Z,8.10
2022-12-25T19:39:46.446Z,9.15
2022-12-25T19:42:16.501Z,8.73
2022-12-25T19:44:43.610Z,8.88
2022-12-25T19:47:11.030Z,8.15
2022-12-25T19:49:38.593Z,7.63
2022-12-25T19:52:07.890Z,8.32
2022-12-25T19:54:34.643Z,10.10
2022-12-25T19:57:01.346Z,10.60
2022-12-25T19:59:28.027Z,9.23
2022-12-25T20:01:54.924Z,9.88
2022-12-25T20:04:21.820Z,8.15
2022-12-25T20:06:48.519Z,7.45
2022-12-25T20:09:21.003Z,7.80
2022-12-25T20:11:48.283Z,8.15
2022-12-25T20:14:16.429Z,8.50
2022-12-25T20:16:44.231Z,7.78
2022-12-25T20:19:12.845Z,8.02
2022-12-25T20:21:40.135Z,7.72
2022-12-25T20:24:10.051Z,7.13
2022-12-25T20:26:38.317Z,6.53
2022-12-25T20:29:05.974Z,7.32
2022-12-25T20:31:34.602Z,7.25
2022-12-25T20:34:09.370Z,7.35
2022-12-25T20:36:37.900Z,6.40
2022-12-25T20:39:09.145Z,7.05
2022-12-25T20:41:36.033Z,6.97
2022-12-25T20:44:04.089Z,6.55
2022-12-25T20:46:30.881Z,6.60
2022-12-25T20:48:57.670Z,7.72
2022-12-25T20:51:26.006Z,6.80
2022-12-25T20:53:53.916Z,6.05
2022-12-25T20:56:23.044Z,6.85
2022-12-25T20:58:58.191Z,6.65
2022-12-25T21:01:26.025Z,6.18
2022-12-25T21:03:53.082Z,6.70
2022-12-25T21:06:22.884Z,6.90
2022-12-25T21:08:49.572Z,7.18
2022-12-25T21:11:17.528Z,7.38
2022-12-25T21:13:45.956Z,7.10
2022-12-25T21:16:16.155Z,6.50
2022-12-25T21:18:42.876Z,6.60
2022-12-25T21:21:10.174Z,6.78
2022-12-25T21:23:38.663Z,6.65
2022-12-25T21:26:18.418Z,6.63
2022-12-25T21:28:57.283Z,6.75
2022-12-25T21:31:25.155Z,7.55
2022-12-25T21:33:53.946Z,6.85
2022-12-25T21:36:28.475Z,6.65
2022-12-25T21:39:01.150Z,7.25
2022-12-25T21:41:30.902Z,5.68
2022-12-25T21:43:58.372Z,6.15
2022-12-25T21:46:26.261Z,6.18
2022-12-25T21:48:54.016Z,5.18
2022-12-25T21:51:45.040Z,5.70
2022-12-25T21:54:12.681Z,4.57
2022-12-25T21:56:44.613Z,5.22
2022-12-25T21:59:15.559Z,5.10
2022-12-25T22:01:43.214Z,4.72
2022-12-25T22:04:12.706Z,5.35
2022-12-25T22:06:58.202Z,4.45
2022-12-25T22:09:25.417Z,3.75
2022-12-25T22:12:21.160Z,4.20
2022-12-25T22:14:54.140Z,4.20
2022-12-25T22:17:53.193Z,3.30
2022-12-25T22:20:26.694Z,3.63
2022-12-25T22:22:54.085Z,3.20
2022-12-25T22:25:21.273Z,3.60
2022-12-25T22:27:48.873Z,3.80
2022-12-25T22:30:26.836Z,3.38
2022-12-25T22:32:53.666Z,2.53
2022-12-25T22:35:20.840Z,3.72
2022-12-25T22:37:49.408Z,3.33
2022-12-25T22:40:17.964Z,3.33
2022-12-25T22:42:44.745Z,3.70
2022-12-25T22:45:12.340Z,3.85
2022-12-25T22:47:39.632Z,3.30
2022-12-25T22:50:06.687Z,3.00
2022-12-25T22:52:33.518Z,3.67
2022-12-25T22:55:00.278Z,3.50
2022-12-25T22:57:26.975Z,4.32
2022-12-25T22:59:53.750Z,3.60
2022-12-25T23:02:20.941Z,3.67
2022-12-25T23:04:48.347Z,4.18
2022-12-25T23:07:15.559Z,4.30
2022-12-25T23:09:43.007Z,4.60
2022-12-25T23:12:33.296Z,4.53
2022-12-25T23:15:00.027Z,4.30
2022-12-25T23:17:45.515Z,4.85
2022-12-25T23:20:32.986Z,5.03
2022-12-25T23:23:18.844Z,4.60
2022-12-25T23:26:04.762Z,5.05
2022-12-25T23:28:50.251Z,4.47
2022-12-25T23:31:17.182Z,4.30
2022-12-25T23:33:44.007Z,7.97
2022-12-25T23:36:10.805Z,5.00
2022-12-25T23:38:37.480Z,4.45
2022-12-25T23:41:04.292Z,10.73
2022-12-25T23:43:30.964Z,4.63
2022-12-25T23:45:57.696Z,6.13
2022-12-25T23:48:24.343Z,4.57
2022-12-25T23:50:51.037Z,3.85
2022-12-25T23:53:17.710Z,3.53
2022-12-25T23:55:48.658Z,3.67
2022-12-25T23:58:18.307Z,3.05
